createdAt,value
2023-01-06T00:01:10.773Z,101215.44
2023-01-06T00:03:38.730Z,101209.81
2023-01-06T00:06:08.342Z,101213.78
2023-01-06T00:08:36.555Z,101213.47
2023-01-06T00:11:07.862Z,101208.16
2023-01-06T00:13:35.775Z,101207.66
2023-01-06T00:16:07.493Z,101212.13
2023-01-06T00:18:39.481Z,101197.19
2023-01-06T00:21:07.620Z,101194.84
2023-01-06T00:23:36.088Z,101191.03
2023-01-06T00:26:04.421Z,101191.03
2023-01-06T00:28:33.905Z,101195.53
2023-01-06T00:31:06.908Z,101193.19
2023-01-06T00:33:35.845Z,101187.34
2023-01-06T00:36:03.676Z,101183.19
2023-01-06T00:38:31.593Z,101181.69
2023-01-06T00:40:59.094Z,101180.19
2023-01-06T00:43:27.601Z,101180.53
2023-01-06T00:45:55.116Z,101170.41
2023-01-06T00:48:22.645Z,101171.22
2023-01-06T00:50:51.471Z,101169.75
2023-01-06T00:53:19.007Z,101168.22
2023-01-06T00:55:46.480Z,101165.91
2023-01-06T00:58:13.920Z,101169.22
2023-01-06T01:00:41.373Z,101168.06
2023-01-06T01:03:08.888Z,101176.88
2023-01-06T01:05:36.354Z,101174.22
2023-01-06T01:08:05.504Z,101175.19
2023-01-06T01:10:33.985Z,101175.19
2023-01-06T01:13:01.437Z,101170.84
2023-01-06T01:15:28.884Z,101168.03
2023-01-06T01:17:56.328Z,101172.22
2023-01-06T01:20:24.119Z,101176.03
2023-01-06T01:22:51.609Z,101158.91
2023-01-06T01:25:20.385Z,101172.56
2023-01-06T01:27:47.923Z,101181.19
2023-01-06T01:30:15.366Z,101177.88
2023-01-06T01:32:42.903Z,101186.50
2023-01-06T01:35:10.916Z,101184.53
2023-01-06T01:37:38.412Z,101184.00
2023-01-06T01:40:07.560Z,101182.88
2023-01-06T01:42:36.395Z,101181.53
2023-01-06T01:45:06.935Z,101186.88
2023-01-06T01:47:41.940Z,101183.41
2023-01-06T01:50:14.369Z,101181.56
2023-01-06T01:52:42.688Z,101174.56
2023-01-06T01:55:10.474Z,101177.56
2023-01-06T01:57:41.772Z,101177.75
2023-01-06T02:00:10.534Z,101172.25
2023-01-06T02:02:38.388Z,101161.59
2023-01-06T02:05:06.518Z,101167.44
2023-01-06T02:07:34.103Z,101163.09
2023-01-06T02:10:07.143Z,101156.94
2023-01-06T02:12:34.892Z,101158.78
2023-01-06T02:15:03.995Z,101151.63
2023-01-06T02:17:43.214Z,101146.81
2023-01-06T02:20:24.981Z,101145.97
2023-01-06T02:23:13.851Z,101149.97
2023-01-06T02:25:59.444Z,101140.69
2023-01-06T02:29:01.332Z,101138.16
2023-01-06T02:31:58.295Z,101141.47
2023-01-06T02:34:33.324Z,101137.50
2023-01-06T02:37:07.015Z,101129.50
2023-01-06T02:39:41.991Z,101140.66
2023-01-06T02:42:18.926Z,101132.66
2023-01-06T02:44:52.361Z,101127.00
2023-01-06T02:47:28.436Z,101127.38
2023-01-06T02:50:01.436Z,101130.84
2023-01-06T02:52:34.104Z,101118.91
2023-01-06T02:55:05.269Z,101121.72
2023-01-06T02:57:37.955Z,101122.69
2023-01-06T03:00:11.059Z,101122.38
2023-01-06T03:02:42.347Z,101121.53
2023-01-06T03:05:11.296Z,101132.16
2023-01-06T03:07:39.656Z,101132.34
2023-01-06T03:10:09.146Z,101120.69
2023-01-06T03:12:40.209Z,101122.66
2023-01-06T03:15:09.370Z,101123.66
2023-01-06T03:17:36.884Z,101129.97
2023-01-06T03:20:06.813Z,101134.31
2023-01-06T03:22:35.310Z,101133.31
2023-01-06T03:25:03.103Z,101137.13
2023-01-06T03:27:30.666Z,101130.63
2023-01-06T03:29:58.205Z,101127.94
2023-01-06T03:32:29.455Z,101119.81
2023-01-06T03:35:08.728Z,101118.84
2023-01-06T03:37:45.473Z,101112.41
2023-01-06T03:40:17.349Z,101120.34
2023-01-06T03:43:06.886Z,101119.03
2023-01-06T03:45:43.363Z,101112.22
2023-01-06T03:48:16.520Z,101113.41
2023-01-06T03:50:49.259Z,101108.06
2023-01-06T03:53:27.324Z,101116.53
2023-01-06T03:55:58.711Z,101113.41
2023-01-06T03:58:27.544Z,101097.09
2023-01-06T04:00:55.375Z,101102.75
2023-01-06T04:03:24.760Z,101090.59
2023-01-06T04:05:54.373Z,101090.13
2023-01-06T04:08:21.928Z,101092.13
2023-01-06T04:10:49.432Z,101098.41
2023-01-06T04:13:15.934Z,101093.59
2023-01-06T04:15:43.410Z,101092.75
2023-01-06T04:18:10.893Z,101098.09
2023-01-06T04:20:38.421Z,101090.94
2023-01-06T04:23:07.310Z,101090.59
2023-01-06T04:25:34.793Z,101085.78
2023-01-06T04:28:02.255Z,101080.97
2023-01-06T04:30:29.737Z,101077.97
2023-01-06T04:32:57.196Z,101083.63
2023-01-06T04:35:24.644Z,101073.47
2023-01-06T04:37:52.118Z,101073.31
2023-01-06T04:40:20.910Z,101073.25
2023-01-06T04:43:06.763Z,101073.63
2023-01-06T04:45:34.938Z,101076.44
2023-01-06T04:48:02.901Z,101079.63
2023-01-06T04:50:30.429Z,101078.81
2023-01-06T04:52:57.905Z,101091.41
2023-01-06T04:55:26.880Z,101088.25
2023-01-06T04:57:54.391Z,101097.06
2023-01-06T05:00:22.115Z,101096.59
2023-01-06T05:02:49.670Z,101093.25
2023-01-06T05:05:17.836Z,101091.28
2023-01-06T05:07:45.301Z,101098.06
2023-01-06T05:10:13.135Z,101095.91
2023-01-06T05:12:42.002Z,101086.78
2023-01-06T05:15:10.887Z,101088.78
2023-01-06T05:17:38.454Z,101096.09
2023-01-06T05:20:07.401Z,101088.09
2023-01-06T05:22:34.875Z,101084.13
2023-01-06T05:25:02.371Z,101079.16
2023-01-06T05:27:29.849Z,101074.63
2023-01-06T05:30:01.702Z,101080.28
2023-01-06T05:32:29.148Z,101077.97
2023-01-06T05:34:56.614Z,101078.31
2023-01-06T05:37:24.055Z,101076.47
2023-01-06T05:39:51.496Z,101075.47
2023-01-06T05:42:18.953Z,101070.84
2023-01-06T05:44:46.434Z,101080.13
2023-01-06T05:47:15.307Z,101084.47
2023-01-06T05:49:42.789Z,101086.13
2023-01-06T05:52:10.259Z,101088.94
2023-01-06T05:54:37.889Z,101098.03
2023-01-06T05:57:07.712Z,101099.66
2023-01-06T05:59:35.224Z,101098.75
2023-01-06T06:02:02.739Z,101100.56
2023-01-06T06:04:31.560Z,101090.59
2023-01-06T06:06:59.010Z,101087.94
2023-01-06T06:09:26.508Z,101099.75
2023-01-06T06:11:54.765Z,101122.03
2023-01-06T06:14:22.484Z,101125.34
2023-01-06T06:16:49.998Z,101113.72
2023-01-06T06:19:17.492Z,101095.59
2023-01-06T06:21:46.288Z,101100.75
2023-01-06T06:24:13.790Z,101096.25
2023-01-06T06:26:41.266Z,101104.72
2023-01-06T06:29:08.863Z,101105.09
2023-01-06T06:31:36.371Z,101100.06
2023-01-06T06:34:04.980Z,101098.75
2023-01-06T06:36:32.474Z,101098.25
2023-01-06T06:39:01.535Z,101101.41
2023-01-06T06:41:29.051Z,101101.06
2023-01-06T06:43:56.528Z,101103.41
2023-01-06T06:46:24.341Z,101106.94
2023-01-06T06:48:52.043Z,101105.41
2023-01-06T06:51:20.988Z,101112.88
2023-01-06T06:53:48.957Z,101107.72
2023-01-06T06:56:18.876Z,101108.06
2023-01-06T06:58:46.487Z,101111.91
2023-01-06T07:01:16.263Z,101110.41
2023-01-06T07:03:44.193Z,101107.41
2023-01-06T07:06:14.887Z,101109.38
2023-01-06T07:08:44.540Z,101109.25
2023-01-06T07:11:12.111Z,101115.06
2023-01-06T07:13:41.118Z,101102.09
2023-01-06T07:16:09.236Z,101107.91
2023-01-06T07:18:37.090Z,101119.38
2023-01-06T07:21:05.979Z,101119.72
2023-01-06T07:23:33.589Z,101120.56
2023-01-06T07:26:02.592Z,101118.91
2023-01-06T07:28:32.989Z,101114.75
2023-01-06T07:31:02.339Z,101114.41
2023-01-06T07:33:30.241Z,101122.72
2023-01-06T07:35:58.325Z,101117.06
2023-01-06T07:38:26.430Z,101124.03
2023-01-06T07:40:54.037Z,101130.69
2023-01-06T07:43:21.506Z,101132.19
2023-01-06T07:45:49.511Z,101139.81
2023-01-06T07:48:18.519Z,101134.16
2023-01-06T07:50:46.023Z,101134.69
2023-01-06T07:53:14.091Z,101151.97
2023-01-06T07:55:41.557Z,101138.00
2023-01-06T07:58:10.478Z,101141.00
2023-01-06T08:00:38.403Z,101149.97
2023-01-06T08:03:07.276Z,101144.47
2023-01-06T08:05:37.952Z,101145.66
2023-01-06T08:08:05.841Z,101139.16
2023-01-06T08:10:33.364Z,101153.63
2023-01-06T08:13:01.007Z,101145.66
2023-01-06T08:15:28.501Z,101139.50
2023-01-06T08:17:56.485Z,101141.34
2023-01-06T08:20:24.349Z,101137.50
2023-01-06T08:22:53.209Z,101141.16
2023-01-06T08:25:20.682Z,101150.97
2023-01-06T08:27:48.321Z,101146.31
2023-01-06T08:30:19.947Z,101142.50
2023-01-06T08:32:47.411Z,101148.47
2023-01-06T08:35:15.141Z,101148.00
2023-01-06T08:37:42.624Z,101149.31
2023-01-06T08:40:12.310Z,101145.16
2023-01-06T08:42:39.794Z,101145.97
2023-01-06T08:45:08.831Z,101130.69
2023-01-06T08:47:36.492Z,101135.31
2023-01-06T08:50:03.986Z,101144.78
2023-01-06T08:52:31.433Z,101152.59
2023-01-06T08:54:59.802Z,101155.28
2023-01-06T08:57:28.573Z,101148.28
2023-01-06T08:59:56.069Z,101148.66
2023-01-06T09:02:23.696Z,101136.34
2023-01-06T09:04:51.323Z,101138.50
2023-01-06T09:07:18.829Z,101147.97
2023-01-06T09:09:46.382Z,101138.00
2023-01-06T09:12:13.882Z,101143.50
2023-01-06T09:14:42.712Z,101152.16
2023-01-06T09:17:10.141Z,101146.31
2023-01-06T09:19:37.645Z,101147.00
2023-01-06T09:22:05.353Z,101145.97
2023-01-06T09:24:32.813Z,101157.59
2023-01-06T09:27:00.307Z,101158.44
2023-01-06T09:29:27.805Z,101162.44
2023-01-06T09:31:56.696Z,101165.94
2023-01-06T09:34:24.183Z,101171.75
2023-01-06T09:36:51.677Z,101175.25
2023-01-06T09:39:19.610Z,101178.59
2023-01-06T09:42:06.592Z,101180.72
2023-01-06T09:44:36.704Z,101188.38
2023-01-06T09:47:05.759Z,101185.53
2023-01-06T09:49:46.359Z,101188.38
2023-01-06T09:52:18.073Z,101180.72
2023-01-06T09:54:51.713Z,101193.03
2023-01-06T09:57:23.627Z,101185.53
2023-01-06T09:59:53.619Z,101187.47
2023-01-06T10:02:25.596Z,101191.19
2023-01-06T10:04:53.083Z,101187.84
2023-01-06T10:07:23.930Z,101193.16
2023-01-06T10:10:02.429Z,101194.50
2023-01-06T10:12:41.076Z,101184.31
2023-01-06T10:15:15.994Z,101188.16
2023-01-06T10:17:58.297Z,101185.00
2023-01-06T10:20:50.965Z,101187.97
2023-01-06T10:23:36.788Z,101190.13
2023-01-06T10:26:07.222Z,101180.47
2023-01-06T10:28:36.502Z,101177.13
2023-01-06T10:31:07.500Z,101170.16
2023-01-06T10:33:39.554Z,101177.16
2023-01-06T10:36:12.288Z,101172.47
2023-01-06T10:38:42.166Z,101180.41
2023-01-06T10:41:17.100Z,101171.25
2023-01-06T10:43:44.668Z,101169.38
2023-01-06T10:46:12.367Z,101176.06
2023-01-06T10:48:41.341Z,101174.53
2023-01-06T10:51:29.308Z,101164.03
2023-01-06T10:53:58.354Z,101160.34
2023-01-06T10:56:26.041Z,101156.63
2023-01-06T10:58:56.439Z,101156.56
2023-01-06T11:01:25.508Z,101156.47
2023-01-06T11:04:07.821Z,101144.09
2023-01-06T11:06:35.868Z,101140.88
2023-01-06T11:09:08.631Z,101138.13
2023-01-06T11:11:46.627Z,101127.66
2023-01-06T11:14:17.009Z,101126.84
2023-01-06T11:16:48.242Z,101132.16
2023-01-06T11:19:24.341Z,101133.63
2023-01-06T11:21:51.814Z,101110.59
2023-01-06T11:24:21.222Z,101120.75
2023-01-06T11:26:53.096Z,101134.72
2023-01-06T11:29:26.399Z,101134.06
2023-01-06T11:31:54.019Z,101135.97
2023-01-06T11:34:25.124Z,101128.09
2023-01-06T11:36:53.090Z,101117.84
2023-01-06T11:39:26.248Z,101117.69
2023-01-06T11:41:55.286Z,101118.38
2023-01-06T11:44:29.799Z,101124.28
2023-01-06T11:46:58.903Z,101119.25
2023-01-06T11:49:29.989Z,101120.03
2023-01-06T11:52:01.024Z,101115.00
2023-01-06T11:54:34.570Z,101116.53
2023-01-06T11:57:19.474Z,101117.66
2023-01-06T12:00:15.222Z,101120.81
2023-01-06T12:02:50.904Z,101110.81
2023-01-06T12:05:26.632Z,101100.06
2023-01-06T12:07:56.971Z,101104.09
2023-01-06T12:10:27.424Z,101099.41
2023-01-06T12:12:54.912Z,101104.09
2023-01-06T12:15:23.173Z,101103.94
2023-01-06T12:17:54.138Z,101104.09
2023-01-06T12:20:25.646Z,101103.09
2023-01-06T12:22:55.105Z,101101.97
2023-01-06T12:25:24.866Z,101102.63
2023-01-06T12:27:54.826Z,101105.13
2023-01-06T12:30:28.629Z,101111.47
2023-01-06T12:32:59.615Z,101097.31
2023-01-06T12:35:30.493Z,101099.00
2023-01-06T12:38:01.081Z,101094.66
2023-01-06T12:40:32.053Z,101091.03
2023-01-06T12:43:06.337Z,101082.59
2023-01-06T12:45:41.070Z,101086.91
2023-01-06T12:48:18.521Z,101087.09
2023-01-06T12:50:51.208Z,101092.28
2023-01-06T12:53:23.794Z,101088.56
2023-01-06T12:56:01.257Z,101086.66
2023-01-06T12:58:33.483Z,101088.97
2023-01-06T13:01:04.542Z,101090.78
2023-01-06T13:03:58.119Z,101091.13
2023-01-06T13:06:40.448Z,101090.69
2023-01-06T13:09:21.718Z,101093.88
2023-01-06T13:12:01.072Z,101095.09
2023-01-06T13:14:32.240Z,101100.59
2023-01-06T13:17:06.167Z,101107.03
2023-01-06T13:19:40.157Z,101102.78
2023-01-06T13:22:13.169Z,101117.13
2023-01-06T13:24:53.513Z,101099.88
2023-01-06T13:27:41.199Z,101107.03
2023-01-06T13:30:22.957Z,101099.31
2023-01-06T13:33:03.676Z,101096.16
2023-01-06T13:35:59.701Z,101093.66
2023-01-06T13:38:40.745Z,101097.63
2023-01-06T13:41:12.437Z,101095.56
2023-01-06T13:43:40.196Z,101097.88
2023-01-06T13:46:10.431Z,101104.69
2023-01-06T13:48:41.161Z,101106.16
2023-01-06T13:51:11.418Z,101104.31
2023-01-06T13:53:41.748Z,101103.78
2023-01-06T13:56:28.678Z,101104.09
2023-01-06T13:59:22.508Z,101104.91
2023-01-06T14:01:50.816Z,101105.00
2023-01-06T14:04:58.507Z,101102.31
2023-01-06T14:07:34.369Z,101107.19
2023-01-06T14:10:04.514Z,101110.63
2023-01-06T14:12:33.627Z,101109.25
2023-01-06T14:15:06.069Z,101113.06
2023-01-06T14:17:39.554Z,101108.44
2023-01-06T14:20:08.717Z,101102.63
2023-01-06T14:22:36.666Z,101096.03
2023-01-06T14:25:08.790Z,101101.16
2023-01-06T14:28:09.886Z,101111.13
2023-01-06T14:30:37.744Z,101110.09
2023-01-06T14:33:28.607Z,101112.94
2023-01-06T14:36:03.488Z,101114.69
2023-01-06T14:38:33.113Z,101106.59
2023-01-06T14:41:04.371Z,101105.97
2023-01-06T14:43:42.206Z,101102.06
2023-01-06T14:46:18.015Z,101098.59
2023-01-06T14:48:50.230Z,101096.31
2023-01-06T14:51:21.064Z,101099.31
2023-01-06T14:53:54.228Z,101108.00
2023-01-06T14:56:25.745Z,101115.31
2023-01-06T14:59:04.330Z,101115.88
2023-01-06T15:01:35.408Z,101118.69
2023-01-06T15:04:04.888Z,101118.31
2023-01-06T15:06:32.800Z,101116.75
2023-01-06T15:09:14.207Z,101120.78
2023-01-06T15:11:43.673Z,101109.94
2023-01-06T15:14:25.905Z,101108.19
2023-01-06T15:16:54.465Z,101115.31
2023-01-06T15:19:22.228Z,101116.78
2023-01-06T15:21:54.046Z,101115.03
2023-01-06T15:24:22.928Z,101112.88
2023-01-06T15:27:29.439Z,101117.78
2023-01-06T15:29:58.032Z,101121.84
2023-01-06T15:32:26.930Z,101125.13
2023-01-06T15:34:56.720Z,101119.97
2023-01-06T15:37:25.791Z,101124.22
2023-01-06T15:39:53.798Z,101124.75
2023-01-06T15:42:25.145Z,101128.38
2023-01-06T15:44:57.968Z,101127.69
2023-01-06T15:47:30.401Z,101128.47
2023-01-06T15:50:02.194Z,101137.16
2023-01-06T15:52:32.580Z,101134.84
2023-01-06T15:55:01.902Z,101130.19
2023-01-06T15:57:33.515Z,101139.19
2023-01-06T16:00:02.921Z,101147.09
2023-01-06T16:02:31.877Z,101151.91
2023-01-06T16:05:00.694Z,101150.06
2023-01-06T16:07:39.296Z,101157.78
2023-01-06T16:10:31.720Z,101161.91
2023-01-06T16:13:25.789Z,101157.94
2023-01-06T16:15:57.890Z,101167.13
2023-01-06T16:18:30.870Z,101160.78
2023-01-06T16:21:00.137Z,101161.81
2023-01-06T16:23:31.650Z,101150.78
2023-01-06T16:26:12.079Z,101155.78
2023-01-06T16:28:47.579Z,101159.66
2023-01-06T16:31:16.514Z,101153.81
2023-01-06T16:33:46.766Z,101151.66
2023-01-06T16:36:16.665Z,101159.03
2023-01-06T16:38:44.778Z,101156.53
2023-01-06T16:41:17.994Z,101152.50
2023-01-06T16:43:47.488Z,101152.78
2023-01-06T16:46:21.155Z,101156.75
2023-01-06T16:48:51.347Z,101149.84
2023-01-06T16:51:19.186Z,101147.69
2023-01-06T16:53:47.252Z,101152.34
2023-01-06T16:56:17.331Z,101154.22
2023-01-06T16:58:47.445Z,101148.59
2023-01-06T17:01:16.704Z,101156.09
2023-01-06T17:03:45.418Z,101157.22
2023-01-06T17:06:17.912Z,101145.75
2023-01-06T17:08:45.575Z,101160.41
2023-01-06T17:11:16.182Z,101143.94
2023-01-06T17:13:51.989Z,101141.47
2023-01-06T17:16:26.756Z,101138.81
2023-01-06T17:18:56.359Z,101137.78
2023-01-06T17:21:27.331Z,101132.81
2023-01-06T17:23:57.264Z,101133.50
2023-01-06T17:26:25.090Z,101136.19
2023-01-06T17:28:55.148Z,101134.81
2023-01-06T17:31:30.139Z,101149.91
2023-01-06T17:33:58.742Z,101147.94
2023-01-06T17:36:36.936Z,101148.44
2023-01-06T17:39:13.234Z,101153.22
2023-01-06T17:41:40.854Z,101158.22
2023-01-06T17:44:15.628Z,101163.25
2023-01-06T17:46:43.210Z,101164.25
2023-01-06T17:49:32.281Z,101171.75
2023-01-06T17:52:00.140Z,101167.09
2023-01-06T17:54:46.720Z,101176.56
2023-01-06T17:57:16.418Z,101171.91
2023-01-06T17:59:45.909Z,101178.56
2023-01-06T18:02:32.674Z,101185.22
2023-01-06T18:05:03.650Z,101185.38
2023-01-06T18:07:32.675Z,101187.91
2023-01-06T18:10:00.250Z,101185.22
2023-01-06T18:12:28.510Z,101181.56
2023-01-06T18:14:57.521Z,101190.56
2023-01-06T18:17:27.240Z,101188.41
2023-01-06T18:19:55.256Z,101195.88
2023-01-06T18:22:24.109Z,101186.56
2023-01-06T18:24:52.914Z,101191.84
2023-01-06T18:27:24.030Z,101203.69
2023-01-06T18:29:52.146Z,101198.56
2023-01-06T18:32:31.058Z,101201.88
2023-01-06T18:34:59.503Z,101209.88
2023-01-06T18:37:28.850Z,101204.53
2023-01-06T18:39:59.522Z,101210.03
2023-01-06T18:42:30.105Z,101216.69
2023-01-06T18:45:16.650Z,101208.53
2023-01-06T18:47:50.981Z,101211.69
2023-01-06T18:50:25.097Z,101210.38
2023-01-06T18:52:53.279Z,101206.56
2023-01-06T18:55:27.057Z,101211.72
2023-01-06T18:57:57.757Z,101213.03
2023-01-06T19:00:33.862Z,101212.19
2023-01-06T19:03:07.903Z,101214.19
2023-01-06T19:05:35.471Z,101213.19
2023-01-06T19:08:11.449Z,101211.22
2023-01-06T19:10:39.036Z,101205.34
2023-01-06T19:13:13.725Z,101216.38
2023-01-06T19:15:41.391Z,101211.84
2023-01-06T19:18:14.006Z,101206.69
2023-01-06T19:20:41.819Z,101218.00
2023-01-06T19:23:19.003Z,101211.19
2023-01-06T19:25:48.655Z,101205.81
2023-01-06T19:28:20.938Z,101206.38
2023-01-06T19:30:51.136Z,101209.72
2023-01-06T19:33:41.626Z,101200.06
2023-01-06T19:36:43.150Z,101196.22
2023-01-06T19:39:32.612Z,101206.88
2023-01-06T19:42:09.684Z,101205.19
2023-01-06T19:44:38.821Z,101211.22
2023-01-06T19:47:14.586Z,101197.41
2023-01-06T19:49:46.478Z,101203.84
2023-01-06T19:52:27.508Z,101197.22
2023-01-06T19:54:56.195Z,101208.19
2023-01-06T19:57:27.275Z,101206.22
2023-01-06T19:59:55.168Z,101211.69
2023-01-06T20:02:29.385Z,101199.06
2023-01-06T20:04:58.762Z,101194.72
2023-01-06T20:07:26.412Z,101191.22
2023-01-06T20:09:56.077Z,101198.72
2023-01-06T20:12:23.675Z,101181.59
2023-01-06T20:14:51.227Z,101192.06
2023-01-06T20:17:18.989Z,101194.72
2023-01-06T20:19:46.591Z,101194.56
2023-01-06T20:22:15.532Z,101189.06
2023-01-06T20:24:43.164Z,101199.88
2023-01-06T20:27:13.307Z,101185.91
2023-01-06T20:29:40.989Z,101183.91
2023-01-06T20:32:08.538Z,101180.41
2023-01-06T20:34:36.126Z,101179.44
2023-01-06T20:37:03.712Z,101178.59
2023-01-06T20:39:32.787Z,101178.59
2023-01-06T20:42:03.631Z,101181.25
2023-01-06T20:44:31.345Z,101180.06
2023-01-06T20:46:58.942Z,101170.59
2023-01-06T20:49:26.568Z,101173.59
2023-01-06T20:51:54.171Z,101178.94
2023-01-06T20:54:21.747Z,101170.78
2023-01-06T20:56:50.646Z,101174.25
2023-01-06T20:59:18.204Z,101179.25
2023-01-06T21:01:45.964Z,101181.72
2023-01-06T21:04:13.582Z,101187.41
2023-01-06T21:06:41.128Z,101189.06
2023-01-06T21:09:08.821Z,101179.09
2023-01-06T21:11:36.412Z,101176.44
2023-01-06T21:14:05.341Z,101179.25
2023-01-06T21:16:32.916Z,101181.59
2023-01-06T21:19:00.536Z,101191.88
2023-01-06T21:21:28.156Z,101182.09
2023-01-06T21:23:56.190Z,101184.75
2023-01-06T21:26:23.766Z,101184.53
2023-01-06T21:28:51.364Z,101180.25
2023-01-06T21:31:20.387Z,101186.41
2023-01-06T21:33:47.991Z,101183.22
2023-01-06T21:36:15.575Z,101184.56
2023-01-06T21:38:43.222Z,101166.75
2023-01-06T21:41:28.246Z,101176.22
2023-01-06T21:43:55.835Z,101172.75
2023-01-06T21:46:24.915Z,101176.06
2023-01-06T21:48:52.555Z,101165.25
2023-01-06T21:51:21.108Z,101166.59
2023-01-06T21:53:48.779Z,101178.91
2023-01-06T21:56:16.503Z,101185.91
2023-01-06T21:58:44.075Z,101186.22
2023-01-06T22:01:11.972Z,101179.56
2023-01-06T22:03:40.984Z,101180.22
2023-01-06T22:06:08.918Z,101175.25
2023-01-06T22:08:36.678Z,101176.06
2023-01-06T22:11:04.629Z,101175.41
2023-01-06T22:13:32.563Z,101174.56
2023-01-06T22:16:00.148Z,101177.25
2023-01-06T22:18:28.062Z,101179.06
2023-01-06T22:20:57.632Z,101175.06
2023-01-06T22:23:25.696Z,101177.91
2023-01-06T22:25:53.262Z,101176.72
2023-01-06T22:28:24.170Z,101187.88
2023-01-06T22:30:52.659Z,101180.06
2023-01-06T22:33:20.216Z,101186.88
2023-01-06T22:35:47.810Z,101184.41
2023-01-06T22:38:16.861Z,101188.03
2023-01-06T22:40:44.628Z,101181.88
2023-01-06T22:43:12.203Z,101185.53
2023-01-06T22:45:39.780Z,101175.25
2023-01-06T22:48:07.702Z,101170.25
2023-01-06T22:50:35.278Z,101175.75
2023-01-06T22:53:02.858Z,101177.25
2023-01-06T22:55:31.764Z,101182.56
2023-01-06T22:57:59.374Z,101183.56
2023-01-06T23:00:26.896Z,101187.22
2023-01-06T23:02:57.731Z,101198.00
2023-01-06T23:05:25.439Z,101192.53
2023-01-06T23:07:52.988Z,101185.22
2023-01-06T23:10:20.714Z,101193.53
2023-01-06T23:12:49.690Z,101197.19
2023-01-06T23:15:17.409Z,101201.19
2023-01-06T23:17:45.057Z,101195.50
2023-01-06T23:20:12.813Z,101196.53
2023-01-06T23:22:40.592Z,101190.72
2023-01-06T23:25:08.935Z,101187.56
2023-01-06T23:27:39.109Z,101181.72
2023-01-06T23:30:09.541Z,101197.53
2023-01-06T23:32:37.245Z,101190.22
2023-01-06T23:35:05.399Z,101182.53
2023-01-06T23:37:34.088Z,101182.88
2023-01-06T23:40:01.705Z,101183.56
2023-01-06T23:42:30.418Z,101186.38
2023-01-06T23:44:59.867Z,101188.88
2023-01-06T23:47:28.752Z,101174.94
2023-01-06T23:49:56.309Z,101179.06
2023-01-06T23:52:23.890Z,101172.75
2023-01-06T23:54:51.440Z,101166.59
2023-01-06T23:57:19.011Z,101178.72
2023-01-06T23:59:46.804Z,101175.91
